Time;durP1;ratioP1;P1;durP2;ratioP2;P2;SDS_P1;SDS_P2;PMS_P1;PMS_P2;Temp;Humidity;BMP_temperature;BMP_pressure;BME280_temperature;BME280_humidity;BME280_pressure;Samples;Min_cycle;Max_cycle;Signal;HPM_P1;HPM_P2
2023/04/06 00:01:21;;;;;;;0.50;0.50;;;3.40;99.90;;;;;;5069447;28;20194;-88
2023/04/06 00:03:47;;;;;;;0.50;0.50;;;3.40;99.90;;;;;;5065561;28;20182;-87
2023/04/06 00:06:12;;;;;;;0.40;0.40;;;3.10;99.90;;;;;;5046399;28;20186;-88
2023/04/06 00:08:38;;;;;;;0.40;0.40;;;3.10;99.90;;;;;;5050358;28;20193;-88
2023/04/06 00:11:04;;;;;;;0.50;0.50;;;3.20;99.90;;;;;;5063785;28;20186;-87
2023/04/06 00:13:29;;;;;;;0.40;0.40;;;3.00;99.90;;;;;;5044497;28;20193;-88
2023/04/06 00:15:55;;;;;;;0.50;0.50;;;3.00;99.90;;;;;;5044264;28;20216;-88
2023/04/06 00:18:20;;;;;;;0.50;0.50;;;2.70;99.90;;;;;;5050679;28;20201;-87
2023/04/06 00:20:46;;;;;;;0.40;0.40;;;2.30;99.90;;;;;;5046069;28;20178;-88
2023/04/06 00:23:11;;;;;;;0.50;0.50;;;2.20;99.90;;;;;;5063758;28;20268;-89
2023/04/06 00:25:37;;;;;;;0.40;0.40;;;2.40;99.90;;;;;;5037842;28;20244;-89
2023/04/06 00:28:03;;;;;;;0.50;0.50;;;2.20;99.90;;;;;;5040885;28;20661;-90
2023/04/06 00:30:29;;;;;;;0.50;0.50;;;2.00;99.90;;;;;;5047945;28;20217;-89
2023/04/06 00:32:54;;;;;;;0.50;0.50;;;1.90;99.90;;;;;;5040940;28;20541;-89
2023/04/06 00:35:20;;;;;;;0.50;0.50;;;1.80;99.90;;;;;;5048173;28;20182;-89
2023/04/06 00:37:47;;;;;;;0.50;0.50;;;1.70;99.90;;;;;;5068331;28;20210;-89
2023/04/06 00:40:13;;;;;;;0.50;0.50;;;1.70;99.90;;;;;;5068169;28;20331;-89
2023/04/06 00:42:39;;;;;;;0.40;0.40;;;1.70;99.90;;;;;;5036583;28;20950;-89
2023/04/06 00:45:05;;;;;;;0.50;0.50;;;1.90;99.90;;;;;;5039600;28;20432;-88
2023/04/06 00:47:30;;;;;;;0.60;0.60;;;2.00;99.90;;;;;;5040521;28;20185;-89
2023/04/06 00:49:56;;;;;;;0.40;0.40;;;1.80;99.90;;;;;;5062293;28;20464;-89
2023/04/06 00:52:22;;;;;;;0.50;0.50;;;1.90;99.90;;;;;;5047731;28;20783;-89
2023/04/06 00:54:49;;;;;;;0.50;0.50;;;1.90;99.90;;;;;;5068754;28;20814;-89
2023/04/06 00:57:15;;;;;;;0.50;0.50;;;1.60;99.90;;;;;;5048427;28;20220;-89
2023/04/06 00:59:40;;;;;;;0.50;0.50;;;1.40;99.90;;;;;;5037057;28;20440;-89
2023/04/06 01:02:06;;;;;;;0.50;0.50;;;1.30;99.90;;;;;;5061663;28;20182;-87
2023/04/06 01:04:32;;;;;;;0.50;0.50;;;1.40;99.90;;;;;;5038357;28;20279;-89
2023/04/06 01:06:58;;;;;;;0.50;0.50;;;1.60;99.90;;;;;;5041387;28;20986;-89
2023/04/06 01:09:24;;;;;;;0.50;0.50;;;1.60;99.90;;;;;;5065053;28;20547;-89
2023/04/06 01:11:49;;;;;;;0.50;0.50;;;1.50;99.90;;;;;;5068919;28;20178;-89
2023/04/06 01:14:15;;;;;;;0.60;0.60;;;1.60;99.90;;;;;;5047491;28;20237;-88
2023/04/06 01:16:41;;;;;;;0.50;0.50;;;1.90;99.90;;;;;;5040535;28;20236;-89
2023/04/06 01:19:13;;;;;;;0.50;0.50;;;2.20;99.90;;;;;;5049691;28;20182;-88
2023/04/06 01:21:40;;;;;;;0.53;0.53;;;2.30;99.90;;;;;;5048395;28;20425;-88
2023/04/06 01:24:06;;;;;;;0.60;0.60;;;2.20;99.90;;;;;;5036244;28;20478;-89
2023/04/06 01:26:33;;;;;;;0.57;0.57;;;2.00;99.90;;;;;;5055437;28;20536;-89
2023/04/06 01:28:59;;;;;;;0.50;0.50;;;1.80;99.90;;;;;;5036917;28;20460;-88
2023/04/06 01:31:26;;;;;;;0.40;0.40;;;1.60;99.90;;;;;;5040835;28;20961;-89
2023/04/06 01:33:52;;;;;;;0.60;0.60;;;1.50;99.90;;;;;;5064027;28;20498;-88
2023/04/06 01:36:17;;;;;;;0.50;0.50;;;1.40;99.90;;;;;;5058650;28;20485;-88
2023/04/06 01:38:43;;;;;;;0.50;0.50;;;1.40;99.90;;;;;;5039223;28;20436;-89
2023/04/06 01:41:09;;;;;;;0.50;0.50;;;1.30;99.90;;;;;;5057385;28;20213;-89
2023/04/06 01:43:34;;;;;;;0.50;0.50;;;1.30;99.90;;;;;;5068486;28;20685;-89
2023/04/06 01:46:00;;;;;;;0.50;0.50;;;1.40;99.90;;;;;;5068466;28;20181;-90
2023/04/06 01:48:26;;;;;;;0.50;0.50;;;1.20;99.90;;;;;;5044161;28;20201;-89
2023/04/06 01:50:52;;;;;;;0.60;0.60;;;1.30;99.90;;;;;;5066072;28;20444;-88
2023/04/06 01:53:18;;;;;;;0.50;0.50;;;1.40;99.90;;;;;;5060951;28;20451;-88
2023/04/06 01:55:43;;;;;;;0.50;0.50;;;1.50;99.90;;;;;;5031830;28;20945;-88
2023/04/06 01:58:09;;;;;;;0.50;0.50;;;1.40;99.90;;;;;;5065533;28;20650;-88
2023/04/06 02:00:34;;;;;;;0.50;0.50;;;1.30;99.90;;;;;;5044888;28;20187;-88
2023/04/06 02:03:00;;;;;;;0.47;0.47;;;1.30;99.90;;;;;;5045383;28;20218;-88
2023/04/06 02:05:26;;;;;;;0.60;0.60;;;1.40;99.90;;;;;;5034569;28;20191;-88
2023/04/06 02:07:51;;;;;;;0.47;0.47;;;1.50;99.90;;;;;;5037285;28;20178;-88
2023/04/06 02:10:17;;;;;;;0.50;0.50;;;1.90;99.90;;;;;;5060312;28;20246;-88
2023/04/06 02:12:43;;;;;;;0.50;0.50;;;2.00;99.90;;;;;;5040466;28;20282;-88
2023/04/06 02:15:09;;;;;;;0.50;0.50;;;2.00;99.90;;;;;;5067145;28;20853;-88
2023/04/06 02:17:34;;;;;;;0.40;0.40;;;1.90;99.90;;;;;;5058401;28;20233;-89
2023/04/06 02:20:00;;;;;;;0.50;0.50;;;1.90;99.90;;;;;;5052758;28;20444;-89
2023/04/06 02:22:25;;;;;;;0.50;0.50;;;1.90;99.90;;;;;;5051417;28;20193;-88
2023/04/06 02:24:51;;;;;;;0.50;0.50;;;1.60;99.90;;;;;;5041394;28;20182;-88
2023/04/06 02:27:16;;;;;;;0.50;0.50;;;1.40;99.90;;;;;;5042260;28;20178;-88
2023/04/06 02:29:42;;;;;;;0.50;0.50;;;1.30;99.90;;;;;;5046595;28;20191;-88
2023/04/06 02:32:07;;;;;;;0.60;0.60;;;1.30;99.90;;;;;;5042038;28;20658;-88
2023/04/06 02:34:33;;;;;;;0.60;0.60;;;1.10;99.90;;;;;;5045523;28;20225;-88
2023/04/06 02:36:58;;;;;;;0.50;0.50;;;1.00;99.90;;;;;;5063464;28;20259;-89
2023/04/06 02:39:24;;;;;;;0.53;0.53;;;0.80;99.90;;;;;;5041958;28;20186;-88
2023/04/06 02:41:49;;;;;;;0.57;0.57;;;1.00;99.90;;;;;;5046376;28;20182;-88
2023/04/06 02:44:16;;;;;;;0.60;0.60;;;0.90;99.90;;;;;;5064103;28;20189;-89
2023/04/06 02:46:45;;;;;;;0.50;0.50;;;0.70;99.90;;;;;;5052118;28;20186;-89
2023/04/06 02:49:11;;;;;;;0.60;0.60;;;0.80;99.90;;;;;;5065744;28;20440;-89
2023/04/06 02:51:36;;;;;;;0.40;0.40;;;0.90;99.90;;;;;;5049980;28;20448;-88
2023/04/06 02:54:02;;;;;;;0.50;0.50;;;0.90;99.90;;;;;;5041814;28;20186;-88
2023/04/06 02:56:27;;;;;;;0.60;0.60;;;1.10;99.90;;;;;;5064211;28;20305;-88
2023/04/06 02:58:53;;;;;;;0.60;0.60;;;0.90;99.90;;;;;;5045342;28;20175;-88
2023/04/06 03:01:18;;;;;;;0.57;0.57;;;1.00;99.90;;;;;;5050079;28;20795;-88
2023/04/06 03:03:44;;;;;;;0.57;0.57;;;0.90;99.90;;;;;;5051210;28;20193;-88
2023/04/06 03:06:09;;;;;;;0.50;0.50;;;0.70;99.90;;;;;;5069270;28;20181;-88
2023/04/06 03:08:35;;;;;;;0.60;0.60;;;1.00;99.90;;;;;;5066427;28;20178;-87
2023/04/06 03:11:01;;;;;;;0.50;0.50;;;1.30;99.90;;;;;;5037142;28;20193;-88
2023/04/06 03:13:26;;;;;;;0.60;0.60;;;1.10;99.90;;;;;;5041229;28;20197;-89
2023/04/06 03:15:52;;;;;;;0.50;0.50;;;1.20;99.90;;;;;;5036992;28;20182;-88
2023/04/06 03:18:22;;;;;;;0.60;0.60;;;1.30;99.90;;;;;;5049844;28;20662;-88
2023/04/06 03:20:48;;;;;;;0.50;0.50;;;1.20;99.90;;;;;;5043198;28;21818;-87
2023/04/06 03:23:13;;;;;;;0.50;0.50;;;1.30;99.90;;;;;;5037208;28;20477;-88
2023/04/06 03:25:39;;;;;;;0.50;0.50;;;1.40;99.90;;;;;;5034041;28;20209;-87
2023/04/06 03:28:05;;;;;;;0.60;0.60;;;1.20;99.90;;;;;;5042053;28;20182;-87
2023/04/06 03:30:30;;;;;;;0.47;0.47;;;1.10;99.90;;;;;;5065771;28;20189;-87
2023/04/06 03:32:56;;;;;;;0.50;0.50;;;0.90;99.90;;;;;;5068143;28;20226;-87
2023/04/06 03:35:21;;;;;;;0.60;0.60;;;0.90;99.90;;;;;;5044061;28;20186;-88
2023/04/06 03:37:47;;;;;;;0.47;0.47;;;0.80;99.90;;;;;;5070108;28;20222;-88
2023/04/06 03:40:12;;;;;;;0.50;0.50;;;0.70;99.90;;;;;;5052684;28;20178;-89
2023/04/06 03:42:38;;;;;;;0.60;0.60;;;0.80;99.90;;;;;;5070822;28;20186;-89
2023/04/06 03:45:04;;;;;;;0.60;0.60;;;0.70;99.90;;;;;;5067159;28;20194;-88
2023/04/06 03:47:29;;;;;;;0.50;0.50;;;0.70;99.90;;;;;;5043314;28;20628;-88
2023/04/06 03:49:57;;;;;;;0.50;0.50;;;0.60;99.90;;;;;;5051485;28;20243;-88
2023/04/06 03:52:23;;;;;;;0.60;0.60;;;0.60;99.90;;;;;;5069005;28;20775;-87
2023/04/06 03:54:49;;;;;;;0.60;0.60;;;0.50;99.90;;;;;;5048859;28;20433;-87
2023/04/06 03:57:14;;;;;;;0.70;0.70;;;0.40;99.90;;;;;;5040557;28;20240;-87
2023/04/06 03:59:40;;;;;;;0.60;0.60;;;0.50;99.90;;;;;;5045360;28;20951;-87
2023/04/06 04:02:05;;;;;;;0.50;0.50;;;0.30;99.90;;;;;;5062740;28;20217;-87
2023/04/06 04:04:31;;;;;;;0.60;0.60;;;0.40;99.90;;;;;;5066540;28;20189;-87
2023/04/06 04:06:56;;;;;;;0.60;0.60;;;0.40;99.90;;;;;;5048737;28;20248;-87
2023/04/06 04:09:22;;;;;;;0.50;0.50;;;0.50;99.90;;;;;;5061785;28;20194;-87
2023/04/06 04:11:47;;;;;;;0.60;0.60;;;0.60;99.90;;;;;;5067443;28;20185;-87
2023/04/06 04:14:13;;;;;;;0.60;0.60;;;0.60;99.90;;;;;;5044058;28;20396;-87
2023/04/06 04:16:39;;;;;;;0.60;0.60;;;0.60;99.90;;;;;;5060638;28;20222;-88
2023/04/06 04:19:05;;;;;;;0.50;0.50;;;0.40;99.90;;;;;;5044237;28;20189;-87
2023/04/06 04:21:31;;;;;;;0.60;0.60;;;0.40;99.90;;;;;;5044512;28;20745;-88
2023/04/06 04:23:57;;;;;;;0.60;0.60;;;0.40;99.90;;;;;;5049073;28;20448;-88
2023/04/06 04:26:22;;;;;;;0.60;0.60;;;0.60;99.90;;;;;;5059986;28;20448;-87
2023/04/06 04:28:48;;;;;;;0.70;0.70;;;0.60;99.90;;;;;;5062198;28;20379;-88
2023/04/06 04:31:14;;;;;;;0.50;0.50;;;0.60;99.90;;;;;;5035156;28;20243;-88
2023/04/06 04:33:40;;;;;;;0.50;0.50;;;0.60;99.90;;;;;;5059713;28;20237;-87
2023/04/06 04:36:05;;;;;;;0.60;0.60;;;0.50;99.90;;;;;;5057787;28;20704;-86
2023/04/06 04:38:31;;;;;;;0.40;0.40;;;0.70;99.90;;;;;;5067879;28;20198;-87
2023/04/06 04:40:56;;;;;;;0.50;0.50;;;0.90;99.90;;;;;;5067577;28;20190;-87
2023/04/06 04:43:22;;;;;;;0.60;0.60;;;0.90;99.90;;;;;;5044452;28;20218;-87
2023/04/06 04:45:47;;;;;;;0.53;0.53;;;0.90;99.90;;;;;;5058297;28;20554;-86
2023/04/06 04:48:13;;;;;;;0.50;0.50;;;0.80;99.90;;;;;;5056276;28;20241;-86
2023/04/06 04:50:38;;;;;;;0.60;0.60;;;0.80;99.90;;;;;;5063767;28;20182;-87
2023/04/06 04:53:07;;;;;;;0.53;0.53;;;0.80;99.90;;;;;;5058525;28;20216;-86
2023/04/06 04:55:32;;;;;;;0.50;0.50;;;1.00;99.90;;;;;;5063431;28;20209;-87
2023/04/06 04:57:58;;;;;;;0.50;0.50;;;1.20;99.90;;;;;;5060419;28;20841;-86
2023/04/06 05:00:23;;;;;;;0.50;0.50;;;1.20;99.90;;;;;;5040025;28;20192;-86
2023/04/06 05:02:49;;;;;;;0.60;0.60;;;1.20;99.90;;;;;;5038050;28;20216;-86
2023/04/06 05:05:15;;;;;;;0.50;0.50;;;1.30;99.90;;;;;;5045297;28;20258;-86
2023/04/06 05:07:40;;;;;;;0.60;0.60;;;1.30;99.90;;;;;;5063384;28;20315;-86
2023/04/06 05:10:06;;;;;;;0.60;0.60;;;1.30;99.90;;;;;;5064858;28;20185;-86
2023/04/06 05:12:32;;;;;;;0.50;0.50;;;1.40;99.90;;;;;;5058403;28;20224;-85
2023/04/06 05:14:57;;;;;;;0.53;0.53;;;1.30;99.90;;;;;;5054530;28;20448;-87
2023/04/06 05:17:23;;;;;;;0.60;0.60;;;1.20;99.90;;;;;;5033700;28;20211;-87
2023/04/06 05:19:49;;;;;;;0.60;0.60;;;1.40;99.90;;;;;;5055235;28;20554;-87
2023/04/06 05:22:17;;;;;;;0.50;0.50;;;1.30;99.90;;;;;;5052231;28;20356;-87
2023/04/06 05:24:43;;;;;;;0.53;0.53;;;1.30;99.90;;;;;;5055357;28;20182;-86
2023/04/06 05:27:08;;;;;;;0.60;0.60;;;1.20;99.90;;;;;;5050301;28;20967;-88
2023/04/06 05:29:34;;;;;;;0.50;0.50;;;1.30;99.90;;;;;;5065491;28;20195;-89
2023/04/06 05:31:59;;;;;;;0.60;0.60;;;1.30;99.90;;;;;;5062687;28;20189;-85
2023/04/06 05:34:25;;;;;;;0.50;0.50;;;1.40;99.90;;;;;;5056493;28;20231;-86
2023/04/06 05:36:50;;;;;;;0.50;0.50;;;1.70;99.90;;;;;;5060706;28;20216;-90
2023/04/06 05:39:16;;;;;;;0.40;0.40;;;1.80;99.90;;;;;;5043430;28;20184;-89
2023/04/06 05:41:41;;;;;;;0.30;0.30;;;1.90;99.90;;;;;;5048970;28;20306;-88
2023/04/06 05:44:07;;;;;;;0.57;0.57;;;1.80;99.90;;;;;;5057836;28;20197;-92
2023/04/06 05:46:32;;;;;;;0.50;0.50;;;1.90;99.90;;;;;;5041261;28;20182;-91
2023/04/06 05:48:58;;;;;;;0.50;0.50;;;2.00;99.90;;;;;;5039847;28;20178;-91
2023/04/06 05:51:24;;;;;;;0.40;0.40;;;2.10;99.90;;;;;;5053985;28;21065;-89
2023/04/06 05:53:50;;;;;;;0.57;0.57;;;2.20;99.90;;;;;;5057369;28;20170;-92
2023/04/06 05:56:16;;;;;;;0.50;0.50;;;2.00;99.90;;;;;;5056348;28;20455;-89
2023/04/06 05:58:41;;;;;;;0.50;0.50;;;2.10;99.90;;;;;;5049527;28;20179;-90
2023/04/06 06:01:08;;;;;;;0.30;0.30;;;2.10;99.90;;;;;;5040459;28;20746;-90
2023/04/06 06:03:34;;;;;;;0.60;0.60;;;2.10;99.90;;;;;;5042324;28;20185;-92
2023/04/06 06:06:01;;;;;;;0.50;0.50;;;2.10;99.90;;;;;;5050270;28;20446;-90
2023/04/06 06:08:27;;;;;;;0.50;0.50;;;2.10;99.90;;;;;;5049516;28;20577;-90
2023/04/06 06:10:53;;;;;;;0.50;0.50;;;2.10;99.90;;;;;;5052891;28;20444;-90
2023/04/06 06:13:18;;;;;;;0.43;0.43;;;2.10;99.90;;;;;;5038561;28;20531;-90
2023/04/06 06:15:45;;;;;;;0.50;0.50;;;2.20;99.90;;;;;;5041493;28;20182;-92
2023/04/06 06:18:10;;;;;;;0.40;0.40;;;2.10;99.90;;;;;;5045325;28;20182;-91
2023/04/06 06:20:36;;;;;;;0.40;0.40;;;2.30;99.90;;;;;;5052394;28;20447;-94
2023/04/06 06:23:02;;;;;;;0.50;0.50;;;2.40;99.90;;;;;;5050978;28;20256;-93
2023/04/06 06:25:30;;;;;;;0.50;0.50;;;2.50;99.90;;;;;;5047149;28;20189;-93
2023/04/06 06:27:56;;;;;;;0.50;0.50;;;2.90;99.90;;;;;;5041872;28;20704;-92
2023/04/06 06:30:21;;;;;;;0.50;0.50;;;3.20;99.90;;;;;;5044904;28;20484;-93
2023/04/06 06:32:47;;;;;;;0.50;0.50;;;3.50;99.90;;;;;;5041269;28;20230;-94
2023/04/06 06:35:12;;;;;;;0.50;0.50;;;3.90;99.90;;;;;;5038513;28;20179;-95
2023/04/06 06:37:38;;;;;;;0.50;0.50;;;4.00;99.90;;;;;;5043570;28;20218;-93
2023/04/06 06:40:04;;;;;;;0.40;0.40;;;3.80;99.90;;;;;;5047252;28;20240;-92
2023/04/06 06:42:30;;;;;;;0.50;0.50;;;3.70;99.90;;;;;;5049743;28;20244;-91
2023/04/06 06:44:56;;;;;;;0.43;0.43;;;3.50;99.90;;;;;;5050545;28;20440;-93
2023/04/06 06:47:21;;;;;;;0.47;0.47;;;3.40;99.90;;;;;;5048859;28;20440;-93
2023/04/06 06:49:47;;;;;;;0.50;0.50;;;3.40;99.90;;;;;;5042206;28;20179;-93
2023/04/06 06:52:12;;;;;;;0.50;0.50;;;3.50;99.90;;;;;;5071758;28;20182;-92
2023/04/06 06:54:38;;;;;;;0.47;0.47;;;3.60;99.90;;;;;;5057180;28;20529;-93
2023/04/06 06:57:03;;;;;;;0.30;0.30;;;3.60;99.90;;;;;;5056819;28;20991;-92
2023/04/06 06:59:29;;;;;;;0.40;0.40;;;3.60;99.90;;;;;;5052611;28;20185;-92
2023/04/06 07:01:55;;;;;;;0.30;0.30;;;3.90;99.90;;;;;;5043253;28;20241;-92
2023/04/06 07:04:20;;;;;;;0.43;0.43;;;4.10;99.90;;;;;;5042576;28;20899;-93
2023/04/06 07:06:46;;;;;;;0.40;0.40;;;4.30;99.90;;;;;;5050607;28;20188;-92
2023/04/06 07:09:11;;;;;;;0.40;0.40;;;4.60;99.90;;;;;;5055867;28;20182;-94
2023/04/06 07:11:37;;;;;;;0.40;0.40;;;4.90;99.90;;;;;;5051948;28;20522;-93
2023/04/06 07:14:02;;;;;;;0.40;0.40;;;5.00;99.90;;;;;;5045504;28;20197;-95
2023/04/06 07:16:28;;;;;;;0.47;0.47;;;5.10;99.90;;;;;;5048034;28;20210;-95
2023/04/06 07:18:53;;;;;;;0.40;0.40;;;5.30;99.90;;;;;;5044930;28;20194;-95
2023/04/06 07:21:19;;;;;;;0.40;0.40;;;5.30;99.90;;;;;;5048234;28;20191;-96
2023/04/06 07:23:44;;;;;;;0.40;0.40;;;5.50;99.90;;;;;;5056104;28;20177;-95
2023/04/06 07:26:10;;;;;;;0.40;0.40;;;5.50;99.90;;;;;;5056480;28;20511;-96
2023/04/06 07:28:37;;;;;;;0.40;0.40;;;5.80;99.90;;;;;;5047690;28;20535;-96
2023/04/06 07:31:03;;;;;;;0.30;0.30;;;5.90;99.90;;;;;;5053569;28;20455;-96
2023/04/06 07:33:29;;;;;;;0.33;0.33;;;6.10;99.90;;;;;;5046559;28;20482;-96
2023/04/06 07:35:56;;;;;;;0.30;0.30;;;6.30;99.90;;;;;;5033110;28;20219;-91
2023/04/06 07:38:22;;;;;;;0.30;0.30;;;6.30;99.90;;;;;;5048504;28;20551;-87
2023/04/06 07:40:47;;;;;;;0.40;0.40;;;6.40;99.90;;;;;;5044573;28;20568;-86
2023/04/06 07:43:13;;;;;;;0.40;0.40;;;6.50;99.90;;;;;;5040687;28;20194;-86
2023/04/06 07:45:38;;;;;;;0.30;0.30;;;6.40;99.90;;;;;;5039371;28;20662;-86
2023/04/06 07:48:04;;;;;;;0.30;0.30;;;6.60;99.90;;;;;;5046799;28;20194;-86
2023/04/06 07:50:30;;;;;;;0.30;0.30;;;6.90;99.90;;;;;;5036225;28;20207;-84
2023/04/06 07:52:55;;;;;;;0.30;0.30;;;7.00;99.90;;;;;;5046844;28;20190;-88
2023/04/06 07:55:21;;;;;;;0.30;0.30;;;7.40;99.90;;;;;;5038862;28;20191;-88
2023/04/06 07:57:46;;;;;;;0.30;0.30;;;6.90;99.90;;;;;;5048114;28;20210;-87
2023/04/06 08:00:13;;;;;;;0.30;0.30;;;7.00;99.90;;;;;;5063317;28;20256;-88
2023/04/06 08:02:39;;;;;;;0.30;0.30;;;7.80;99.90;;;;;;5040195;28;20216;-88
2023/04/06 08:05:05;;;;;;;0.30;0.30;;;7.70;99.90;;;;;;5062082;28;20438;-91
2023/04/06 08:07:31;;;;;;;0.20;0.20;;;7.80;99.90;;;;;;5037173;28;20209;-92
2023/04/06 08:09:56;;;;;;;0.30;0.30;;;7.90;99.90;;;;;;5046122;28;20467;-93
2023/04/06 08:12:22;;;;;;;0.30;0.30;;;8.10;99.90;;;;;;5053620;28;20185;-92
2023/04/06 08:14:48;;;;;;;0.30;0.30;;;8.00;99.90;;;;;;5052982;28;20244;-93
2023/04/06 08:17:13;;;;;;;0.30;0.30;;;8.00;99.90;;;;;;5044791;28;20214;-95
2023/04/06 08:19:39;;;;;;;0.30;0.30;;;7.70;99.90;;;;;;5062692;28;20436;-95
2023/04/06 08:22:04;;;;;;;0.30;0.30;;;7.80;99.90;;;;;;5049812;28;20745;-90
2023/04/06 08:24:32;;;;;;;0.30;0.30;;;7.60;99.90;;;;;;5041736;28;20193;-92
2023/04/06 08:26:58;;;;;;;0.30;0.30;;;8.00;99.90;;;;;;5043035;28;20180;-90
2023/04/06 08:29:24;;;;;;;0.30;0.30;;;8.20;99.90;;;;;;5033176;28;20409;-92
2023/04/06 08:31:49;;;;;;;0.30;0.30;;;8.20;99.90;;;;;;5033110;28;20427;-90
2023/04/06 08:34:15;;;;;;;0.30;0.30;;;8.60;99.90;;;;;;5048230;28;20223;-91
2023/04/06 08:36:42;;;;;;;0.30;0.30;;;8.40;99.90;;;;;;5049085;28;20226;-90
2023/04/06 08:39:07;;;;;;;0.30;0.30;;;8.30;99.90;;;;;;5049458;28;20449;-90
2023/04/06 08:41:34;;;;;;;0.30;0.30;;;8.50;99.90;;;;;;5051057;28;20647;-89
2023/04/06 08:44:01;;;;;;;0.30;0.30;;;8.20;99.90;;;;;;5052215;28;20171;-90
2023/04/06 08:46:29;;;;;;;0.30;0.30;;;8.50;99.90;;;;;;5047200;28;20544;-90
2023/04/06 08:48:59;;;;;;;0.30;0.30;;;8.90;99.90;;;;;;5051743;28;20425;-91
2023/04/06 08:51:27;;;;;;;0.30;0.30;;;8.90;99.90;;;;;;5041203;28;20439;-91
2023/04/06 08:53:56;;;;;;;0.20;0.20;;;8.90;99.90;;;;;;5032177;28;20450;-90
2023/04/06 08:56:23;;;;;;;0.30;0.30;;;8.80;99.90;;;;;;5045213;28;21069;-89
2023/04/06 08:58:49;;;;;;;0.20;0.20;;;;;;;;;;5049998;28;20449;-91
2023/04/06 09:01:16;;;;;;;0.30;0.30;;;;;;;;;;5047882;28;20925;-90
2023/04/06 09:03:42;;;;;;;0.20;0.20;;;10.20;99.90;;;;;;5045728;28;20441;-91
2023/04/06 09:06:09;;;;;;;0.30;0.30;;;;;;;;;;5050782;28;20921;-90
2023/04/06 09:08:36;;;;;;;0.20;0.20;;;;;;;;;;5051569;28;20876;-90
2023/04/06 09:11:03;;;;;;;0.20;0.20;;;;;;;;;;5049154;28;20540;-90
2023/04/06 09:13:29;;;;;;;0.30;0.30;;;9.80;99.90;;;;;;5050007;28;20952;-89
2023/04/06 09:16:02;;;;;;;0.20;0.20;;;10.30;99.90;;;;;;5042413;28;20430;-90
2023/04/06 09:18:32;;;;;;;0.20;0.20;;;10.10;99.90;;;;;;5034510;28;20938;-91
2023/04/06 09:21:06;;;;;;;0.20;0.20;;;10.50;99.90;;;;;;5046924;28;20452;-91
2023/04/06 09:23:34;;;;;;;0.20;0.20;;;10.60;99.90;;;;;;5053967;28;20453;-89
2023/04/06 09:26:08;;;;;;;0.20;0.20;;;;;;;;;;5039880;28;20495;-92
2023/04/06 09:28:52;;;;;;;0.20;0.20;;;10.30;99.90;;;;;;5050835;28;20505;-89
2023/04/06 09:31:30;;;;;;;0.20;0.20;;;11.00;99.90;;;;;;5051870;28;20444;-89
2023/04/06 09:33:57;;;;;;;0.20;0.20;;;;;;;;;;5052822;28;20479;-86
2023/04/06 09:36:33;;;;;;;0.20;0.20;;;11.70;99.90;;;;;;5050015;28;20999;-86
2023/04/06 09:39:03;;;;;;;0.20;0.20;;;11.60;99.90;;;;;;5051479;28;20441;-86
2023/04/06 09:41:36;;;;;;;0.20;0.20;;;11.70;99.90;;;;;;5047355;28;20445;-89
2023/04/06 09:44:12;;;;;;;0.20;0.20;;;11.30;99.90;;;;;;5035408;28;20426;-91
2023/04/06 09:46:44;;;;;;;0.20;0.20;;;;;;;;;;5048649;28;20513;-91
2023/04/06 09:49:11;;;;;;;0.20;0.20;;;11.30;99.90;;;;;;5051932;28;20433;-90
2023/04/06 09:51:37;;;;;;;0.20;0.20;;;;;;;;;;5048956;28;20450;-91
2023/04/06 09:54:04;;;;;;;0.20;0.20;;;;;;;;;;5050969;28;20501;-90
2023/04/06 09:56:49;;;;;;;0.20;0.20;;;;;;;;;;5039635;28;20219;-88
2023/04/06 09:59:39;;;;;;;0.20;0.20;;;;;;;;;;5036104;28;20961;-91
2023/04/06 10:02:06;;;;;;;0.20;0.20;;;;;;;;;;5053215;28;20502;-90
2023/04/06 10:04:43;;;;;;;0.20;0.20;;;11.70;99.90;;;;;;5035202;28;20531;-92
2023/04/06 10:07:16;;;;;;;0.20;0.20;;;;;;;;;;5039868;28;20480;-88
2023/04/06 10:09:44;;;;;;;0.20;0.20;;;;;;;;;;5047592;28;20440;-89
2023/04/06 10:12:11;;;;;;;0.20;0.20;;;;;;;;;;5053759;28;20963;-90
2023/04/06 10:14:41;;;;;;;0.20;0.20;;;;;;;;;;5053982;28;20442;-93
2023/04/06 10:17:07;;;;;;;0.20;0.20;;;;;;;;;;5052887;28;20476;-88
2023/04/06 10:19:50;;;;;;;0.10;0.10;;;;;;;;;;5052878;28;20425;-87
2023/04/06 10:22:38;;;;;;;0.20;0.20;;;13.60;99.90;;;;;;5037845;28;20444;-87
2023/04/06 10:25:04;;;;;;;0.20;0.20;;;13.30;99.90;;;;;;5048237;28;20437;-88
2023/04/06 10:27:30;;;;;;;0.20;0.20;;;12.70;97.20;;;;;;5043196;28;20445;-88
2023/04/06 10:30:02;;;;;;;0.10;0.10;;;12.60;97.70;;;;;;5051379;28;20218;-87
2023/04/06 10:32:36;;;;;;;0.10;0.10;;;13.00;99.90;;;;;;5053523;28;20456;-88
2023/04/06 10:35:09;;;;;;;0.10;0.10;;;13.70;99.90;;;;;;5070204;28;20519;-90
2023/04/06 10:38:07;;;;;;;0.10;0.10;;;13.80;99.90;;;;;;5063265;28;20488;-89
2023/04/06 10:40:36;;;;;;;0.10;0.10;;;13.70;99.90;;;;;;5022247;28;20567;-87
2023/04/06 10:43:13;;;;;;;0.10;0.10;;;13.30;99.90;;;;;;5071309;28;20451;-87
2023/04/06 10:45:40;;;;;;;0.10;0.10;;;13.10;99.90;;;;;;5040434;28;20448;-89
2023/04/06 10:48:19;;;;;;;0.10;0.10;;;13.60;99.90;;;;;;5037044;28;20418;-91
2023/04/06 10:50:50;;;;;;;0.10;0.10;;;13.20;99.90;;;;;;5072747;28;20452;-88
2023/04/06 10:53:27;;;;;;;0.10;0.10;;;13.70;99.90;;;;;;5047185;28;20485;-91
2023/04/06 10:55:56;;;;;;;0.10;0.10;;;13.70;99.90;;;;;;5046974;28;20456;-91
2023/04/06 10:58:26;;;;;;;0.10;0.10;;;;;;;;;;5066109;28;20507;-90
2023/04/06 11:00:52;;;;;;;0.10;0.10;;;15.10;98.70;;;;;;5045538;28;20433;-92
2023/04/06 11:03:18;;;;;;;0.00;0.00;;;15.20;90.80;;;;;;5070031;28;20475;-89
2023/04/06 11:05:49;;;;;;;0.10;0.10;;;14.70;92.00;;;;;;5049598;28;20190;-92
2023/04/06 11:08:29;;;;;;;0.00;0.00;;;14.80;89.10;;;;;;5064768;28;20505;-88
2023/04/06 11:11:09;;;;;;;0.00;0.00;;;14.60;94.00;;;;;;5064910;28;20462;-93
2023/04/06 11:13:54;;;;;;;0.00;0.00;;;15.10;93.70;;;;;;5052191;28;20443;-93
2023/04/06 11:16:22;;;;;;;0.00;0.00;;;15.10;91.50;;;;;;5042949;28;20479;-93
2023/04/06 11:18:56;;;;;;;0.00;0.00;;;15.30;92.40;;;;;;5055101;28;20444;-94
2023/04/06 11:21:34;;;;;;;0.00;0.00;;;15.30;89.60;;;;;;5048362;28;20491;-93
2023/04/06 11:24:06;;;;;;;0.00;0.00;;;;;;;;;;5046021;28;20482;-92
2023/04/06 11:26:37;;;;;;;0.00;0.00;;;;;;;;;;5060946;28;20444;-93
2023/04/06 11:29:03;;;;;;;0.00;0.00;;;;;;;;;;5053751;28;20959;-92
2023/04/06 11:31:42;;;;;;;0.10;0.10;;;;;;;;;;5063945;28;20889;-91
2023/04/06 11:34:17;;;;;;;0.10;0.10;;;;;;;;;;5062322;28;20533;-91
2023/04/06 11:36:43;;;;;;;0.10;0.10;;;;;;;;;;5063293;28;20463;-90
2023/04/06 11:39:10;;;;;;;0.10;0.10;;;;;;;;;;5060934;28;20437;-96
2023/04/06 11:41:36;;;;;;;0.00;0.00;;;;;;;;;;5063045;28;20531;-95
2023/04/06 11:44:05;;;;;;;0.10;0.10;;;16.50;99.90;;;;;;5058404;28;20448;-89
2023/04/06 11:46:31;;;;;;;0.10;0.10;;;;;;;;;;5068503;28;20697;-94
2023/04/06 11:49:01;;;;;;;0.10;0.10;;;15.50;99.90;;;;;;5059178;28;20463;-95
2023/04/06 11:51:27;;;;;;;0.10;0.10;;;16.00;99.90;;;;;;5070530;28;20523;-94
2023/04/06 11:53:53;;;;;;;0.10;0.10;;;;;;;;;;5070356;28;20428;-94
2023/04/06 11:56:25;;;;;;;0.10;0.10;;;;;;;;;;5067361;28;20521;-96
2023/04/06 11:58:51;;;;;;;0.10;0.10;;;;;;;;;;5049353;28;21046;-96
2023/04/06 12:01:16;;;;;;;0.10;0.10;;;17.00;99.90;;;;;;5053906;28;20433;-95
2023/04/06 12:03:42;;;;;;;0.10;0.10;;;;;;;;;;5049572;28;20556;-93
2023/04/06 12:06:08;;;;;;;0.10;0.10;;;17.10;99.90;;;;;;5054416;28;20781;-93
2023/04/06 12:08:34;;;;;;;0.10;0.10;;;;;;;;;;5062443;28;20484;-93
2023/04/06 12:11:00;;;;;;;0.10;0.10;;;;;;;;;;5068740;28;20197;-96
2023/04/06 12:13:27;;;;;;;0.10;0.10;;;;;;;;;;5054687;28;20432;-93
2023/04/06 12:15:53;;;;;;;0.10;0.00;;;;;;;;;;5066168;28;20471;-91
2023/04/06 12:18:19;;;;;;;0.10;0.00;;;;;;;;;;5054954;28;20483;-94
2023/04/06 12:20:45;;;;;;;0.10;0.10;;;;;;;;;;5065679;28;20826;-95
2023/04/06 12:23:11;;;;;;;0.10;0.00;;;;;;;;;;5058195;28;20451;-96
2023/04/06 12:25:41;;;;;;;0.10;0.10;;;;;;;;;;5059434;28;20243;-95
2023/04/06 12:28:07;;;;;;;0.10;0.10;;;;;;;;;;5054080;28;20200;-93
2023/04/06 12:30:34;;;;;;;0.10;0.00;;;;;;;;;;5073202;28;20428;-95
2023/04/06 12:33:01;;;;;;;0.10;0.10;;;;;;;;;;5054406;28;20225;-95
2023/04/06 12:35:27;;;;;;;0.10;0.00;;;;;;;;;;5071616;28;20778;-96
2023/04/06 12:37:53;;;;;;;0.10;0.10;;;;;;;;;;5072405;28;20475;-94
2023/04/06 12:40:20;;;;;;;0.10;0.00;;;;;;;;;;5047979;28;20948;-94
2023/04/06 12:42:46;;;;;;;0.10;0.00;;;;;;;;;;5062751;28;20490;-95
2023/04/06 12:45:12;;;;;;;0.10;0.00;;;;;;;;;;5047706;28;20599;-96
2023/04/06 12:47:38;;;;;;;0.10;0.00;;;;;;;;;;5066489;28;20468;-94
2023/04/06 12:50:08;;;;;;;0.10;0.00;;;18.40;96.80;;;;;;5049229;28;20451;-96
2023/04/06 12:52:35;;;;;;;0.10;0.10;;;18.50;63.90;;;;;;5071827;28;20459;-94
2023/04/06 12:55:02;;;;;;;0.10;0.00;;;17.70;93.70;;;;;;5056326;28;20437;-94
2023/04/06 12:57:27;;;;;;;0.10;0.00;;;18.60;62.60;;;;;;5042545;28;20487;-95
2023/04/06 12:59:53;;;;;;;0.10;0.00;;;;;;;;;;5039708;28;20448;-93
2023/04/06 13:02:22;;;;;;;0.10;0.00;;;18.20;99.90;;;;;;5047835;28;20285;-96
2023/04/06 13:04:49;;;;;;;0.10;0.00;;;;;;;;;;5049946;28;20191;-94
2023/04/06 13:07:15;;;;;;;0.10;0.00;;;;;;;;;;5076350;28;20456;-95
2023/04/06 13:12:13;;;;;;;0.10;0.00;;;;;;;;;;5035410;28;20822;-96
2023/04/06 13:17:13;;;;;;;0.10;0.00;;;;;;;;;;5042150;22;20495;-96